首页
METAR-TAF:

METAR-TAF

机场 :

奥黑尔国际机场

芝加哥, 伊利诺伊州, 美国

纬度: 41-58-47N, 经度: 087-54-16W, 海拔: 203米

当前天气观测

该预报发布于35分钟前的07:51 UTC
风速14节,风向西,有时为21节阵风
温度 -6°C
湿度 79%
气压 1012 hPa
能見度: 14.5公里
阴天层高于2200英尺
小雪

METAR: KORD 100751Z 27014G21KT 9SM -SN OVC022 M06/M09 A2987 RMK AO2 PK WND 26027/0734 SLP122 P0000 T10561089

时间: 02:26 (08:26 UTC)

预报

该预报发布于2小时和54分钟前的05:32 UTC
预报有效从10日的 06点(UTC)到 11日的 12点(UTC)
风速14节,风向西转西北,有时为22节阵风
能見度: 10公里
阴天层高于1800英尺
从 10日的 1100点(UTC)
风速12节,风向西
能見度: 10公里
天空无云

TAF: KORD 100532Z 1006/1112 29014G22KT P6SM OVC018 FM101100 27012KT P6SM SKC

超过4000个机场的气象观测和天气预报(METAR&TAF报告)。

可查询的气象台以黄色和红色小点在地图上表示。

将鼠标移到小点上方,可查看气象台名称。

然后点击查看天气观测和预报。

如需切换地图:点击带黑十字的绿色按钮放大地图;点击带横线的绿色按钮缩小地图;或者点击绿色箭头查看邻近地区的地图。


METAR-TAF: